Time;durP1;ratioP1;P1;durP2;ratioP2;P2;SDS_P1;SDS_P2;PMS_P1;PMS_P2;Temp;Humidity;BMP_temperature;BMP_pressure;BME280_temperature;BME280_humidity;BME280_pressure;Samples;Min_cycle;Max_cycle;Signal;HPM_P1;HPM_P2
2022/07/08 00:00:55;;;;;;;14.00;5.32;;;;;;;29.95;57.41;100623.31;5073393;27;65834;-31
2022/07/08 00:03:26;;;;;;;9.95;7.00;;;;;;;30.01;60.50;100623.25;5060169;28;70039;-32
2022/07/08 00:05:57;;;;;;;10.20;7.18;;;;;;;30.06;63.23;100628.00;5065931;27;65591;-32
2022/07/08 00:08:30;;;;;;;14.40;7.93;;;;;;;30.06;64.83;100615.31;5061676;28;70154;-32
2022/07/08 00:11:02;;;;;;;9.82;8.65;;;;;;;30.20;66.23;100629.56;5062034;28;66436;-31
2022/07/08 00:13:32;;;;;;;13.63;7.90;;;;;;;30.27;66.91;100638.47;5071219;28;70027;-33
2022/07/08 00:16:04;;;;;;;8.95;8.15;;;;;;;30.28;67.73;100633.88;5077430;27;65950;-34
2022/07/08 00:18:35;;;;;;;13.75;8.45;;;;;;;30.35;68.88;100650.06;5064018;27;69148;-33
2022/07/08 00:21:06;;;;;;;11.73;9.05;;;;;;;30.45;67.97;100655.78;5057528;28;66047;-33
2022/07/08 00:23:37;;;;;;;16.08;9.73;;;;;;;30.50;68.31;100653.22;5059530;28;69721;-32
2022/07/08 00:26:08;;;;;;;14.13;9.95;;;;;;;30.50;68.46;100654.06;5060385;28;67052;-33
2022/07/08 00:28:39;;;;;;;20.45;11.02;;;;;;;30.42;70.52;100658.94;5062122;28;71996;-33
2022/07/08 00:31:10;;;;;;;12.25;10.10;;;;;;;30.38;71.20;100663.16;5064825;28;67432;-35
2022/07/08 00:33:42;;;;;;;12.95;10.18;;;;;;;30.35;71.02;100667.13;5061796;28;70319;-32
2022/07/08 00:36:13;;;;;;;13.65;10.70;;;;;;;30.33;71.44;100654.88;5070332;27;65889;-33
2022/07/08 00:38:44;;;;;;;19.27;10.45;;;;;;;30.44;69.21;100664.97;5063724;28;69993;-31
2022/07/08 00:41:15;;;;;;;9.52;8.80;;;;;;;30.57;67.22;100674.84;5062673;28;67831;-33
2022/07/08 00:43:47;;;;;;;12.70;8.90;;;;;;;30.38;67.01;100642.31;5070344;28;69492;-32
2022/07/08 00:46:19;;;;;;;8.52;7.90;;;;;;;30.69;66.52;100679.28;5059020;28;65649;-32
2022/07/08 00:48:50;;;;;;;9.32;8.20;;;;;;;30.75;66.53;100674.03;5056185;28;69184;-31
2022/07/08 00:51:21;;;;;;;7.72;7.10;;;;;;;30.84;66.70;100675.41;5062177;28;65692;-30
2022/07/08 00:53:54;;;;;;;7.72;7.07;;;;;;;30.49;66.22;100619.13;5055304;27;69104;-30
2022/07/08 00:56:27;;;;;;;11.63;8.00;;;;;;;30.44;65.89;100600.00;5065373;28;66588;-31
2022/07/08 00:58:58;;;;;;;8.27;7.38;;;;;;;30.99;65.51;100673.16;5058259;27;69662;-30
2022/07/08 01:01:29;;;;;;;11.35;7.43;;;;;;;31.00;66.07;100674.81;5073009;27;65081;-30
2022/07/08 01:04:01;;;;;;;10.20;7.43;;;;;;;31.03;65.73;100674.34;5067046;27;70205;-31
2022/07/08 01:06:33;;;;;;;;;;;;;;;30.73;68.08;100680.50;5057167;28;66341;-30
2022/07/08 01:09:06;;;;;;;7.93;7.35;;;;;;;31.08;65.19;100671.81;5057977;28;69942;-31
2022/07/08 01:11:37;;;;;;;8.35;7.63;;;;;;;31.04;65.22;100665.19;5058124;28;66287;-30
2022/07/08 01:14:08;;;;;;;17.20;8.05;;;;;;;31.12;65.13;100677.59;5055132;28;71310;-31
2022/07/08 01:16:40;;;;;;;7.65;7.05;;;;;;;31.19;64.97;100677.53;5062840;28;65170;-31
2022/07/08 01:19:10;;;;;;;8.55;7.30;;;;;;;31.22;64.75;100669.75;5064881;28;70890;-31
2022/07/08 01:21:42;;;;;;;7.65;7.05;;;;;;;31.18;64.71;100660.44;5056597;28;65119;-30
2022/07/08 01:24:12;;;;;;;9.13;8.23;;;;;;;31.27;64.46;100669.09;5054366;28;68858;-30
2022/07/08 01:26:44;;;;;;;7.90;7.18;;;;;;;31.31;64.11;100675.69;5063399;28;66182;-30
2022/07/08 01:29:16;;;;;;;8.18;7.45;;;;;;;31.32;64.02;100682.78;5054462;27;69092;-31
2022/07/08 01:31:52;;;;;;;7.65;7.05;;;;;;;31.23;64.46;100657.88;5055847;28;65127;-31
2022/07/08 01:34:23;;;;;;;9.43;8.02;;;;;;;31.37;64.68;100686.50;5062942;28;70249;-32
2022/07/08 01:36:54;;;;;;;11.27;7.47;;;;;;;31.40;64.60;100679.78;5060497;28;66025;-31
2022/07/08 01:39:25;;;;;;;15.13;8.67;;;;;;;31.43;65.12;100684.75;5064836;27;69897;-33
2022/07/08 01:41:56;;;;;;;10.10;9.10;;;;;;;31.48;65.41;100686.75;5053755;28;65717;-31
2022/07/08 01:44:27;;;;;;;17.53;8.37;;;;;;;31.51;65.63;100681.72;5053817;28;69102;-31
2022/07/08 01:46:59;;;;;;;14.93;8.90;;;;;;;31.47;65.72;100675.09;5055169;28;65230;-32
2022/07/08 01:49:30;;;;;;;13.50;9.32;;;;;;;31.56;66.47;100692.69;5054159;28;69662;-33
2022/07/08 01:52:01;;;;;;;11.27;9.07;;;;;;;31.60;65.85;100688.47;5049254;28;66103;-32
2022/07/08 01:54:33;;;;;;;17.03;11.40;;;;;;;31.52;69.70;100688.78;5051472;28;69649;-33
2022/07/08 01:57:18;;;;;;;19.45;10.98;;;;;;;31.59;67.69;100689.53;5053627;28;66543;-30
2022/07/08 01:59:50;;;;;;;11.20;9.82;;;;;;;31.63;67.31;100689.91;5054351;28;69393;-32
2022/07/08 02:02:22;;;;;;;13.60;10.52;;;;;;;31.66;66.89;100685.91;5049781;28;66128;-31
2022/07/08 02:04:53;;;;;;;14.20;10.13;;;;;;;31.63;66.94;100684.47;5051278;28;69043;-30
2022/07/08 02:07:24;;;;;;;11.15;9.98;;;;;;;31.71;66.90;100683.34;5053242;28;66302;-31
2022/07/08 02:09:55;;;;;;;13.70;9.38;;;;;;;31.71;67.13;100686.03;5045030;28;69685;-34
2022/07/08 02:12:27;;;;;;;11.38;8.93;;;;;;;31.73;67.00;100684.75;5056646;28;66371;-32
2022/07/08 02:15:02;;;;;;;;;;;;;;;31.40;69.01;100696.06;5073760;27;69683;-32
2022/07/08 02:17:36;;;;;;;16.20;9.52;;;;;;;31.30;66.60;100625.25;5056938;28;66459;-31
2022/07/08 02:20:13;;;;;;;11.73;9.73;;;;;;;31.80;66.59;100700.91;5058883;28;70420;-31
2022/07/08 02:22:45;;;;;;;16.70;9.80;;;;;;;31.80;66.54;100692.78;5054730;28;66721;-31
2022/07/08 02:25:16;;;;;;;13.43;9.73;;;;;;;31.81;66.28;100697.13;5058876;28;70157;-30
2022/07/08 02:27:47;;;;;;;;;;;;;;;31.47;68.38;100702.19;5060651;28;66182;-31
2022/07/08 02:30:19;;;;;;;12.00;9.30;;;;;;;31.81;66.35;100700.66;5059147;28;70459;-32
2022/07/08 02:32:50;;;;;;;15.43;9.68;;;;;;;31.85;66.41;100692.94;5042851;28;66151;-31
2022/07/08 02:35:22;;;;;;;12.85;9.90;;;;;;;31.87;66.08;100690.78;5046352;28;68681;-32
2022/07/08 02:37:54;;;;;;;13.75;9.70;;;;;;;31.78;65.74;100667.78;5074616;27;65988;-31
2022/07/08 02:40:25;;;;;;;9.90;8.90;;;;;;;31.91;65.58;100692.03;5058571;28;69174;-30
2022/07/08 02:42:56;;;;;;;22.38;10.45;;;;;;;31.91;65.48;100686.59;5056909;28;65944;-31
2022/07/08 02:45:27;;;;;;;11.30;8.57;;;;;;;31.96;65.53;100686.72;5055423;28;69936;-31
2022/07/08 02:47:58;;;;;;;15.32;9.15;;;;;;;31.96;65.55;100686.72;5059824;28;65783;-31
2022/07/08 02:50:29;;;;;;;11.30;9.02;;;;;;;31.89;65.47;100660.72;5057975;28;69038;-31
2022/07/08 02:53:00;;;;;;;9.90;8.90;;;;;;;31.99;65.12;100667.28;5058817;28;67152;-31
2022/07/08 02:55:31;;;;;;;10.50;9.38;;;;;;;31.91;65.16;100654.03;5061747;28;69539;-32
2022/07/08 02:58:02;;;;;;;12.30;9.23;;;;;;;32.04;65.13;100664.69;5057159;28;67338;-31
2022/07/08 03:00:33;;;;;;;10.82;9.55;;;;;;;32.05;64.70;100658.19;5058500;28;69835;-31
2022/07/08 03:03:04;;;;;;;10.07;9.03;;;;;;;32.03;64.42;100651.34;5058405;28;66265;-30
2022/07/08 03:05:35;;;;;;;11.32;9.77;;;;;;;32.08;64.56;100653.38;5059949;28;71782;-31
2022/07/08 03:08:06;;;;;;;13.20;9.40;;;;;;;32.09;64.72;100657.72;5055508;28;66091;-31
2022/07/08 03:10:37;;;;;;;13.23;9.43;;;;;;;32.12;64.75;100665.41;5053863;28;69235;-32
2022/07/08 03:13:09;;;;;;;11.27;9.20;;;;;;;32.14;64.29;100649.72;5058055;28;65246;-31
2022/07/08 03:15:40;;;;;;;11.50;9.97;;;;;;;32.16;64.37;100640.28;5058661;28;70298;-32
2022/07/08 03:18:11;;;;;;;11.30;10.20;;;;;;;32.16;64.18;100637.56;5057217;28;66368;-31
2022/07/08 03:20:42;;;;;;;10.37;9.33;;;;;;;32.19;64.25;100626.22;5059320;28;69312;-31
2022/07/08 03:23:13;;;;;;;9.93;9.02;;;;;;;32.13;63.99;100619.03;5058135;28;66117;-31
2022/07/08 03:25:44;;;;;;;10.68;9.68;;;;;;;32.22;64.37;100622.22;5057551;28;69744;-31
2022/07/08 03:28:15;;;;;;;10.50;8.82;;;;;;;32.24;64.06;100625.53;5073907;27;65713;-31
2022/07/08 03:30:46;;;;;;;11.40;9.98;;;;;;;32.25;64.06;100610.91;5065865;28;69861;-31
2022/07/08 03:33:18;;;;;;;12.50;9.40;;;;;;;32.27;63.95;100619.63;5053980;28;64539;-31
2022/07/08 03:35:49;;;;;;;11.20;9.60;;;;;;;32.28;64.05;100615.84;5058164;28;69148;-31
2022/07/08 03:38:20;;;;;;;12.77;9.98;;;;;;;32.30;63.83;100608.31;5056000;28;67759;-32
2022/07/08 03:43:41;;;;;;;11.63;9.15;;;;;;;32.27;63.70;100608.78;5058224;28;66660;-31
2022/07/08 03:46:12;;;;;;;9.75;8.85;;;;;;;32.34;63.61;100608.66;5056277;28;71026;-31
2022/07/08 03:48:44;;;;;;;11.48;10.13;;;;;;;32.32;63.97;100611.63;5058145;28;66340;-30
2022/07/08 03:51:15;;;;;;;10.63;9.73;;;;;;;32.38;63.85;100599.81;5057387;28;70139;-31
2022/07/08 03:53:47;;;;;;;10.95;9.75;;;;;;;32.38;63.30;100599.81;5057975;28;66074;-31
2022/07/08 03:56:18;;;;;;;10.40;9.35;;;;;;;32.31;63.33;100577.38;5057737;28;69124;-32
2022/07/08 03:58:50;;;;;;;9.93;8.90;;;;;;;32.40;63.36;100592.25;5056608;28;66338;-30
2022/07/08 04:01:22;;;;;;;11.52;9.68;;;;;;;32.44;63.20;100603.47;5058562;28;69601;-31
2022/07/08 04:03:53;;;;;;;11.45;10.00;;;;;;;32.41;63.20;100588.47;5058644;28;66862;-31
2022/07/08 04:06:24;;;;;;;12.52;9.60;;;;;;;32.46;63.37;100590.50;5055345;28;69901;-30
2022/07/08 04:08:55;;;;;;;9.82;8.95;;;;;;;32.47;63.19;100592.16;5058183;28;66443;-31
2022/07/08 04:11:26;;;;;;;10.37;9.33;;;;;;;32.18;63.16;100545.91;5058144;28;69681;-32
2022/07/08 04:13:57;;;;;;;13.75;9.43;;;;;;;32.40;62.87;100553.41;5055321;28;66409;-31
2022/07/08 04:16:28;;;;;;;12.77;8.87;;;;;;;32.53;63.15;100574.06;5057597;28;70088;-31
2022/07/08 04:18:59;;;;;;;14.15;9.15;;;;;;;32.56;63.01;100569.00;5058187;28;66330;-31
2022/07/08 04:21:31;;;;;;;8.60;7.88;;;;;;;32.57;62.71;100564.38;5055536;28;70494;-32
2022/07/08 04:24:02;;;;;;;9.55;8.55;;;;;;;32.58;62.99;100560.63;5073798;27;66021;-31
2022/07/08 04:26:34;;;;;;;9.75;8.88;;;;;;;32.17;62.91;100500.00;5050341;28;70431;-31
2022/07/08 04:29:05;;;;;;;9.07;8.18;;;;;;;32.55;62.78;100547.53;5058792;28;66099;-31
2022/07/08 04:31:36;;;;;;;9.25;8.45;;;;;;;32.62;62.66;100549.00;5040980;28;67880;-33
2022/07/08 04:34:07;;;;;;;8.88;8.02;;;;;;;32.66;62.70;100552.09;5065258;27;66294;-30
2022/07/08 04:36:38;;;;;;;9.47;8.53;;;;;;;32.67;62.70;100548.31;5052527;28;69357;-33
2022/07/08 04:39:09;;;;;;;9.77;7.47;;;;;;;32.68;62.52;100549.94;5078331;27;66232;-31
2022/07/08 04:41:41;;;;;;;10.98;8.25;;;;;;;32.70;62.25;100553.25;5055022;28;69983;-31
2022/07/08 04:44:12;;;;;;;9.67;8.67;;;;;;;32.69;62.69;100554.31;5053227;28;65618;-32
2022/07/08 04:46:43;;;;;;;10.77;8.20;;;;;;;32.71;62.66;100561.19;5057168;28;69878;-31
2022/07/08 04:49:16;;;;;;;11.98;8.10;;;;;;;32.74;62.52;100554.44;5037098;28;65972;-31
2022/07/08 04:51:47;;;;;;;9.35;8.27;;;;;;;32.46;62.35;100504.44;5057429;28;70429;-31
2022/07/08 04:54:18;;;;;;;11.60;8.53;;;;;;;32.76;62.50;100548.75;5051751;28;65339;-34
2022/07/08 04:56:50;;;;;;;13.18;9.10;;;;;;;32.74;62.53;100538.13;5034312;28;69526;-33
2022/07/08 04:59:21;;;;;;;8.40;7.50;;;;;;;32.74;62.64;100531.88;5057050;28;66246;-31
2022/07/08 05:01:53;;;;;;;8.70;7.68;;;;;;;32.80;62.61;100534.44;5056850;28;69233;-31
2022/07/08 05:04:24;;;;;;;8.73;7.97;;;;;;;32.83;62.51;100525.81;5057496;28;65533;-32
2022/07/08 05:06:55;;;;;;;8.43;7.57;;;;;;;32.85;62.39;100518.25;5057128;28;70506;-33
2022/07/08 05:09:26;;;;;;;9.15;7.93;;;;;;;32.88;62.40;100514.22;5054444;28;65092;-32
2022/07/08 05:11:57;;;;;;;9.68;8.00;;;;;;;32.82;62.36;100502.44;5057069;28;69649;-32
2022/07/08 05:14:28;;;;;;;17.58;8.35;;;;;;;32.79;62.22;100492.06;5056451;28;66550;-31
2022/07/08 05:17:01;;;;;;;9.45;8.55;;;;;;;32.93;62.16;100504.28;5056453;28;69198;-32
2022/07/08 05:19:32;;;;;;;9.32;8.27;;;;;;;32.82;62.36;100486.16;5057207;28;66548;-32
2022/07/08 05:22:04;;;;;;;8.43;7.72;;;;;;;32.94;62.18;100499.66;5054235;28;70019;-30
2022/07/08 05:24:35;;;;;;;9.20;8.27;;;;;;;32.94;62.17;100483.38;5055055;28;67132;-31
2022/07/08 05:27:06;;;;;;;8.80;7.95;;;;;;;32.93;62.13;100476.25;5057286;28;69992;-31
2022/07/08 05:29:37;;;;;;;12.63;7.30;;;;;;;33.02;62.11;100490.34;5058295;28;65607;-31
2022/07/08 05:32:08;;;;;;;9.80;8.25;;;;;;;32.93;62.06;100477.13;5056524;27;70404;-32
2022/07/08 05:34:41;;;;;;;11.27;7.55;;;;;;;33.07;61.94;100493.13;5057305;28;65153;-32
2022/07/08 05:37:12;;;;;;;9.35;7.90;;;;;;;33.08;62.14;100484.75;5055348;28;70168;-30
2022/07/08 05:39:43;;;;;;;10.77;7.83;;;;;;;33.10;62.19;100489.94;5057010;28;66147;-32
2022/07/08 05:42:14;;;;;;;12.63;7.43;;;;;;;33.09;61.75;100485.56;5050473;28;71413;-31
2022/07/08 05:44:46;;;;;;;11.38;7.35;;;;;;;33.07;61.82;100487.69;5052165;28;65017;-31
2022/07/08 05:47:17;;;;;;;7.45;6.75;;;;;;;33.07;61.99;100493.13;5055930;28;71216;-31
2022/07/08 05:49:48;;;;;;;9.20;7.00;;;;;;;33.05;61.94;100482.50;5055948;28;65990;-32
2022/07/08 05:52:19;;;;;;;8.25;6.80;;;;;;;33.05;62.14;100473.53;5049015;28;70312;-31
2022/07/08 05:54:50;;;;;;;8.63;7.00;;;;;;;33.10;62.40;100476.34;5058610;27;65450;-33
2022/07/08 05:57:21;;;;;;;7.68;6.80;;;;;;;33.11;62.18;100475.28;5057761;28;69770;-32
2022/07/08 05:59:52;;;;;;;6.82;6.22;;;;;;;33.12;61.96;100471.47;5057027;28;66069;-30
2022/07/08 06:02:23;;;;;;;9.90;7.10;;;;;;;33.14;62.32;100477.50;5058014;28;69291;-32
2022/07/08 06:04:54;;;;;;;7.40;6.70;;;;;;;33.17;62.04;100471.56;5058887;28;65727;-32
2022/07/08 06:07:25;;;;;;;7.10;6.10;;;;;;;33.17;62.12;100471.56;5078616;27;70193;-31
2022/07/08 06:09:56;;;;;;;6.95;6.13;;;;;;;33.09;61.90;100452.94;5068666;27;65515;-31
2022/07/08 06:12:27;;;;;;;6.55;5.80;;;;;;;33.19;61.99;100464.00;5061945;28;69503;-31
2022/07/08 06:14:58;;;;;;;6.18;5.57;;;;;;;33.23;61.91;100454.28;5067211;28;66171;-36
2022/07/08 06:17:29;;;;;;;8.37;5.73;;;;;;;33.22;62.11;100447.19;5065941;28;69433;-31
2022/07/08 06:20:00;;;;;;;5.57;5.07;;;;;;;33.27;62.01;100457.34;5065694;28;66256;-30
2022/07/08 06:22:31;;;;;;;14.25;5.13;;;;;;;33.19;61.88;100442.25;5054006;28;70398;-32
2022/07/08 06:25:02;;;;;;;5.27;4.87;;;;;;;33.19;61.80;100442.25;5061966;28;67698;-32
2022/07/08 06:27:33;;;;;;;5.70;5.23;;;;;;;33.29;61.97;100447.03;5070078;27;71608;-32
2022/07/08 06:30:04;;;;;;;8.23;5.67;;;;;;;33.30;61.81;100443.25;5059570;28;67066;-31
2022/07/08 06:32:35;;;;;;;5.93;5.13;;;;;;;33.28;61.75;100440.78;5060782;28;69251;-32
2022/07/08 06:35:06;;;;;;;8.65;5.15;;;;;;;33.32;61.73;100431.06;5061810;28;66894;-31
2022/07/08 06:37:38;;;;;;;8.00;5.50;;;;;;;33.33;61.84;100424.53;5069617;27;68991;-31
2022/07/08 06:40:10;;;;;;;6.20;5.72;;;;;;;33.34;61.61;100433.50;5053100;28;65067;-31
2022/07/08 06:42:41;;;;;;;7.80;5.30;;;;;;;33.34;61.85;100434.34;5063242;28;70137;-31
2022/07/08 06:45:13;;;;;;;7.32;5.45;;;;;;;33.35;61.90;100441.44;5073837;27;66320;-31
2022/07/08 06:47:45;;;;;;;6.00;5.43;;;;;;;33.32;61.95;100439.22;5072531;28;69033;-31
2022/07/08 06:50:16;;;;;;;7.57;5.25;;;;;;;33.31;61.90;100440.28;5075871;27;65872;-30
2022/07/08 06:52:47;;;;;;;6.53;5.05;;;;;;;33.28;61.89;100434.50;5072768;27;69575;-31
2022/07/08 06:55:18;;;;;;;5.83;5.33;;;;;;;33.22;61.98;100414.59;5064187;28;66574;-31
2022/07/08 06:57:49;;;;;;;5.63;5.07;;;;;;;33.35;61.60;100424.31;5063014;28;70127;-31
2022/07/08 07:00:23;;;;;;;9.27;5.47;;;;;;;33.34;62.12;100418.03;5056045;28;66009;-31
2022/07/08 07:02:54;;;;;;;6.32;5.53;;;;;;;33.34;62.08;100418.03;5065692;28;70542;-31
2022/07/08 07:05:25;;;;;;;5.63;5.13;;;;;;;33.36;61.74;100424.03;5059488;28;65507;-31
2022/07/08 07:07:56;;;;;;;6.10;5.60;;;;;;;33.37;61.89;100414.00;5059980;28;70232;-32
2022/07/08 07:10:27;;;;;;;6.60;5.40;;;;;;;33.28;62.04;100397.28;5057791;28;65756;-32
2022/07/08 07:12:58;;;;;;;6.13;5.53;;;;;;;33.35;62.02;100397.94;5059282;28;71058;-31
2022/07/08 07:15:29;;;;;;;5.93;5.10;;;;;;;33.35;61.96;100403.38;5059869;28;67478;-31
2022/07/08 07:18:00;;;;;;;6.57;5.10;;;;;;;33.36;62.17;100410.44;5063683;28;71225;-31
2022/07/08 07:20:31;;;;;;;5.87;5.37;;;;;;;33.36;62.19;100406.91;5063932;27;66228;-31
2022/07/08 07:23:02;;;;;;;7.13;5.67;;;;;;;33.35;62.40;100418.88;5063685;28;70008;-30
2022/07/08 07:25:33;;;;;;;9.37;5.67;;;;;;;33.35;62.35;100424.31;5059491;28;67856;-31
2022/07/08 07:28:05;;;;;;;7.85;4.90;;;;;;;33.33;62.67;100418.28;5070386;28;68844;-31
2022/07/08 07:30:35;;;;;;;8.23;5.97;;;;;;;33.32;62.16;100414.75;5057817;28;67922;-31
2022/07/08 07:33:10;;;;;;;5.93;5.30;;;;;;;33.14;62.27;100391.34;5055507;28;70518;-32
2022/07/08 07:35:41;;;;;;;9.93;4.73;;;;;;;33.34;62.14;100422.66;5067988;28;67104;-31
2022/07/08 07:38:12;;;;;;;6.17;4.63;;;;;;;33.34;61.90;100425.34;5061598;27;70346;-32
2022/07/08 07:40:43;;;;;;;6.40;4.72;;;;;;;33.31;61.92;100423.97;5059340;28;66319;-30
2022/07/08 07:43:14;;;;;;;4.93;4.10;;;;;;;33.19;61.89;100414.25;5060952;28;71475;-31
2022/07/08 07:45:45;;;;;;;6.70;4.27;;;;;;;33.31;61.74;100434.84;5076697;28;66522;-31
2022/07/08 07:48:16;;;;;;;5.20;4.37;;;;;;;33.30;61.71;100444.06;5064022;27;71033;-31
2022/07/08 07:50:47;;;;;;;5.47;3.97;;;;;;;33.25;61.73;100424.13;5059729;28;67273;-31
2022/07/08 07:53:18;;;;;;;6.18;4.07;;;;;;;33.28;61.62;100432.63;5056437;28;70329;-33
2022/07/08 07:55:49;;;;;;;7.07;3.73;;;;;;;33.26;61.71;100447.53;5063367;28;65487;-31
2022/07/08 07:58:21;;;;;;;4.20;3.40;;;;;;;33.26;61.51;100452.97;5067113;28;68920;-31
2022/07/08 08:00:53;;;;;;;6.18;3.40;;;;;;;33.25;61.79;100460.28;5057186;28;65961;-31
2022/07/08 08:03:24;;;;;;;7.35;3.83;;;;;;;33.21;61.60;100451.00;5059113;28;69595;-33
2022/07/08 08:05:55;;;;;;;4.97;3.53;;;;;;;33.19;61.59;100441.44;5057603;28;64822;-30
2022/07/08 08:08:26;;;;;;;4.07;3.10;;;;;;;33.21;61.83;100429.25;5065154;28;69323;-31
2022/07/08 08:10:58;;;;;;;3.70;3.40;;;;;;;33.19;61.91;100417.78;5058396;28;65390;-31
2022/07/08 08:13:29;;;;;;;;;;;;;;;32.85;62.93;100415.03;5050854;28;69595;-32
2022/07/08 08:16:00;;;;;;;4.13;3.40;;;;;;;33.16;62.24;100415.56;5066416;28;66374;-31
2022/07/08 08:18:37;;;;;;;4.05;3.33;;;;;;;33.18;61.98;100409.88;5054251;28;70925;-32
2022/07/08 08:21:08;;;;;;;5.63;3.57;;;;;;;33.16;62.25;100399.28;5055882;28;66975;-31
2022/07/08 08:23:39;;;;;;;4.10;3.70;;;;;;;33.12;62.17;100398.09;5059861;28;69597;-32
2022/07/08 08:26:10;;;;;;;3.05;2.80;;;;;;;33.11;62.12;100401.91;5064116;28;65693;-30
2022/07/08 08:28:41;;;;;;;3.50;3.20;;;;;;;33.12;62.26;100401.63;5057845;28;69558;-31
2022/07/08 08:31:13;;;;;;;4.03;2.85;;;;;;;33.11;62.23;100399.19;5055174;28;66129;-31
2022/07/08 08:33:44;;;;;;;3.55;3.25;;;;;;;33.09;62.25;100398.59;5055553;28;69591;-31
2022/07/08 08:36:15;;;;;;;4.30;3.47;;;;;;;33.09;62.23;100404.03;5054955;28;65291;-32
2022/07/08 08:38:46;;;;;;;3.05;2.65;;;;;;;33.08;62.30;100402.41;5054962;27;69859;-31
2022/07/08 08:41:17;;;;;;;;;;;;;;;32.72;63.49;100401.75;5051116;28;66593;-31
2022/07/08 08:43:48;;;;;;;3.72;2.97;;;;;;;33.03;62.40;100392.25;5064884;28;69885;-31
2022/07/08 08:46:23;;;;;;;3.27;2.97;;;;;;;32.90;62.37;100368.94;5061741;28;66291;-30
2022/07/08 08:48:58;;;;;;;4.03;2.85;;;;;;;33.02;62.12;100381.66;5062006;27;69103;-31
2022/07/08 08:51:34;;;;;;;3.45;2.80;;;;;;;33.01;62.37;100388.94;5065643;28;65398;-31
2022/07/08 08:54:07;;;;;;;2.97;2.63;;;;;;;32.91;62.50;100386.88;5056322;28;69252;-31
2022/07/08 08:56:39;;;;;;;4.40;2.70;;;;;;;32.98;62.20;100403.00;5059764;28;65149;-30
2022/07/08 08:59:11;;;;;;;3.70;2.85;;;;;;;32.59;62.22;100345.03;5054152;28;70068;-31
2022/07/08 09:01:42;;;;;;;4.80;2.90;;;;;;;32.93;62.36;100398.31;5055580;28;66257;-31
2022/07/08 09:04:14;;;;;;;4.05;2.90;;;;;;;32.96;62.55;100409.75;5060950;28;70032;-33
2022/07/08 09:06:45;;;;;;;5.35;2.63;;;;;;;32.94;62.33;100401.88;5069858;27;65587;-31
2022/07/08 09:09:16;;;;;;;3.38;2.85;;;;;;;32.87;62.34;100402.00;5051895;28;70750;-32
2022/07/08 09:11:47;;;;;;;3.28;2.80;;;;;;;32.90;62.40;100409.69;5057689;28;66060;-31
2022/07/08 09:14:22;;;;;;;2.90;2.70;;;;;;;32.85;62.30;100420.47;5066298;28;70235;-31
2022/07/08 09:17:17;;;;;;;3.25;2.60;;;;;;;32.79;62.62;100429.59;5062742;27;66367;-31
2022/07/08 09:19:50;;;;;;;3.92;2.80;;;;;;;32.52;62.49;100366.09;5057295;28;69290;-32
2022/07/08 09:22:23;;;;;;;6.90;2.85;;;;;;;32.86;62.35;100424.81;5053173;28;66274;-31
2022/07/08 09:24:57;;;;;;;3.47;2.83;;;;;;;32.77;62.28;100406.47;5051163;28;69305;-31
2022/07/08 09:27:28;;;;;;;4.40;3.10;;;;;;;32.91;62.48;100435.78;5056742;28;66215;-32
2022/07/08 09:30:06;;;;;;;3.17;2.88;;;;;;;32.89;62.47;100432.47;5070495;28;70102;-31
2022/07/08 09:32:38;;;;;;;7.32;3.63;;;;;;;32.88;62.48;100435.44;5057435;28;65926;-31
2022/07/08 09:35:12;;;;;;;3.27;2.97;;;;;;;32.87;62.38;100434.59;5069283;28;70092;-32
2022/07/08 09:37:43;;;;;;;6.07;3.30;;;;;;;32.87;62.40;100434.59;5060765;28;66302;-31
2022/07/08 09:40:18;;;;;;;4.07;3.10;;;;;;;32.87;62.37;100433.78;5072461;28;70312;-31
2022/07/08 09:42:53;;;;;;;5.28;3.30;;;;;;;32.77;62.35;100414.59;5061506;28;66227;-31
2022/07/08 09:45:33;;;;;;;5.93;3.20;;;;;;;32.81;62.19;100429.34;5052371;28;69572;-31
2022/07/08 09:48:09;;;;;;;8.40;3.25;;;;;;;32.86;62.17;100416.66;5065188;28;66340;-31
2022/07/08 09:50:49;;;;;;;2.83;2.63;;;;;;;32.71;62.43;100397.41;5065121;27;69524;-31
2022/07/08 09:53:40;;;;;;;2.92;2.60;;;;;;;32.84;62.08;100424.22;5054513;28;66112;-31
2022/07/08 09:56:11;;;;;;;4.22;3.00;;;;;;;32.85;62.38;100409.59;5066675;28;69842;-30
2022/07/08 09:58:47;;;;;;;4.68;3.20;;;;;;;32.84;62.42;100412.53;5063760;28;66511;-31
2022/07/08 10:01:18;;;;;;;6.43;2.80;;;;;;;32.83;62.19;100400.84;5060794;28;70164;-31
2022/07/08 10:03:50;;;;;;;8.05;3.20;;;;;;;32.81;62.32;100403.00;5064664;28;66156;-31
2022/07/08 10:06:25;;;;;;;5.97;2.85;;;;;;;32.79;62.42;100394.28;5062485;28;70173;-31
2022/07/08 10:08:56;;;;;;;4.35;3.13;;;;;;;32.60;62.37;100363.81;5059061;28;65152;-32
2022/07/08 10:11:29;;;;;;;6.30;3.47;;;;;;;32.81;62.03;100396.75;5061043;28;69618;-30
2022/07/08 10:14:00;;;;;;;4.18;3.03;;;;;;;32.80;62.26;100409.50;5061018;28;66475;-31
2022/07/08 10:16:33;;;;;;;3.33;3.03;;;;;;;32.35;62.21;100339.69;5060296;27;69909;-31
2022/07/08 10:19:10;;;;;;;6.15;3.65;;;;;;;32.83;62.31;100421.78;5058104;28;66566;-31
2022/07/08 10:21:46;;;;;;;3.58;3.28;;;;;;;32.82;62.14;100434.53;5059129;28;70103;-31
2022/07/08 10:24:22;;;;;;;5.50;3.60;;;;;;;32.12;62.26;100312.66;5060664;28;65507;-31
2022/07/08 10:26:58;;;;;;;4.95;3.95;;;;;;;32.41;62.28;100376.72;5071703;28;70149;-31
2022/07/08 10:29:31;;;;;;;5.88;4.32;;;;;;;32.45;62.49;100386.00;5059767;28;66179;-32
2022/07/08 10:32:02;;;;;;;4.60;3.78;;;;;;;32.79;62.54;100436.91;5060366;28;70140;-31
2022/07/08 10:34:35;;;;;;;3.53;3.23;;;;;;;32.76;62.23;100438.19;5075011;27;66066;-31
2022/07/08 10:37:07;;;;;;;3.40;3.10;;;;;;;32.78;62.42;100446.13;5060147;28;70020;-33
2022/07/08 10:39:42;;;;;;;5.53;3.53;;;;;;;32.76;62.68;100448.25;5063079;28;65967;-32
2022/07/08 10:42:13;;;;;;;5.82;4.65;;;;;;;32.37;62.92;100386.41;5058806;28;69153;-32
2022/07/08 10:44:44;;;;;;;15.23;5.18;;;;;;;32.80;63.25;100450.25;5074118;27;65924;-32
2022/07/08 10:47:28;;;;;;;5.78;4.53;;;;;;;32.41;63.36;100395.72;5047263;28;69114;-31
2022/07/08 10:50:06;;;;;;;6.30;5.68;;;;;;;32.79;64.35;100481.19;5060176;28;66252;-32
2022/07/08 10:52:42;;;;;;;7.72;5.50;;;;;;;32.77;64.56;100480.63;5063207;28;69598;-31
2022/07/08 10:55:17;;;;;;;9.18;5.30;;;;;;;32.75;64.69;100480.03;5057936;28;66303;-31
2022/07/08 10:57:55;;;;;;;6.95;4.72;;;;;;;32.70;65.51;100477.22;5062653;28;69745;-32
2022/07/08 11:00:27;;;;;;;8.77;5.43;;;;;;;32.78;64.92;100479.53;5054591;28;67120;-32
2022/07/08 11:02:59;;;;;;;6.32;4.88;;;;;;;32.81;65.29;100495.34;5072082;28;70536;-31
2022/07/08 11:05:40;;;;;;;;;;;;;;;32.44;67.48;100492.97;5059225;28;66540;-32
2022/07/08 11:08:29;;;;;;;9.60;5.28;;;;;;;32.66;67.20;100500.50;5062476;28;70471;-32
2022/07/08 11:11:03;;;;;;;8.43;5.53;;;;;;;32.71;65.93;100495.16;5058223;28;66161;-31
2022/07/08 11:13:35;;;;;;;7.05;4.88;;;;;;;32.72;65.61;100499.53;5058727;28;70296;-32
2022/07/08 11:16:07;;;;;;;6.60;5.10;;;;;;;32.77;65.93;100499.63;5060637;28;66281;-32
2022/07/08 11:18:38;;;;;;;9.07;4.75;;;;;;;32.74;65.99;100494.69;5061575;28;69828;-31
2022/07/08 11:21:09;;;;;;;9.45;5.20;;;;;;;32.73;66.01;100503.88;5067499;27;65969;-31
2022/07/08 11:23:47;;;;;;;5.47;4.87;;;;;;;32.71;66.54;100508.75;5059535;28;69259;-32
2022/07/08 11:26:20;;;;;;;5.57;4.50;;;;;;;32.72;66.09;100497.63;5071858;27;65690;-32
2022/07/08 11:28:51;;;;;;;14.20;5.13;;;;;;;32.71;66.15;100500.59;5061435;28;70348;-32
2022/07/08 11:31:25;;;;;;;5.13;4.63;;;;;;;32.67;66.74;100494.00;5051777;28;65769;-32
2022/07/08 11:33:56;;;;;;;5.97;4.57;;;;;;;32.70;66.15;100507.09;5065079;28;70173;-32
2022/07/08 11:36:28;;;;;;;6.37;4.70;;;;;;;32.68;66.26;100504.63;5061424;28;66467;-32
2022/07/08 11:39:04;;;;;;;8.55;4.43;;;;;;;32.66;66.75;100514.91;5062108;27;70079;-31
2022/07/08 11:41:40;;;;;;;6.70;5.57;;;;;;;32.67;66.95;100521.97;5059776;28;66404;-32
2022/07/08 11:44:21;;;;;;;7.53;4.78;;;;;;;32.68;66.78;100522.78;5057339;28;69158;-31
2022/07/08 11:46:53;;;;;;;5.53;5.03;;;;;;;32.67;66.54;100527.41;5062123;28;66670;-32
2022/07/08 11:49:25;;;;;;;6.50;5.72;;;;;;;32.65;66.43;100547.72;5062365;28;69552;-32